sensor_id;sensor_type;location;lat;lon;timestamp;P1;durP1;ratioP1;P2;durP2;ratioP2
18316;SDS011;9284;52.298;21.164;2022-12-18T00:00:15;32.67;;;14.23;;
18316;SDS011;9284;52.298;21.164;2022-12-18T00:02:47;38.17;;;15.23;;
18316;SDS011;9284;52.298;21.164;2022-12-18T00:05:19;37.83;;;15.70;;
18316;SDS011;9284;52.298;21.164;2022-12-18T00:07:51;33.63;;;14.13;;
18316;SDS011;9284;52.298;21.164;2022-12-18T00:10:23;35.63;;;13.10;;
18316;SDS011;9284;52.298;21.164;2022-12-18T00:12:55;34.87;;;13.67;;
18316;SDS011;9284;52.298;21.164;2022-12-18T00:15:24;41.73;;;15.30;;
18316;SDS011;9284;52.298;21.164;2022-12-18T00:17:52;36.43;;;15.00;;
18316;SDS011;9284;52.298;21.164;2022-12-18T00:20:32;36.70;;;14.40;;
18316;SDS011;9284;52.298;21.164;2022-12-18T00:23:04;33.57;;;13.17;;
18316;SDS011;9284;52.298;21.164;2022-12-18T00:25:33;34.33;;;13.70;;
18316;SDS011;9284;52.298;21.164;2022-12-18T00:28:02;31.90;;;13.73;;
18316;SDS011;9284;52.298;21.164;2022-12-18T00:30:31;38.27;;;13.87;;
18316;SDS011;9284;52.298;21.164;2022-12-18T00:33:04;34.20;;;13.27;;
18316;SDS011;9284;52.298;21.164;2022-12-18T00:35:33;37.57;;;13.30;;
18316;SDS011;9284;52.298;21.164;2022-12-18T00:38:03;31.77;;;13.43;;
18316;SDS011;9284;52.298;21.164;2022-12-18T00:40:32;31.23;;;12.73;;
18316;SDS011;9284;52.298;21.164;2022-12-18T00:43:11;34.17;;;14.40;;
18316;SDS011;9284;52.298;21.164;2022-12-18T00:45:41;30.03;;;12.77;;
18316;SDS011;9284;52.298;21.164;2022-12-18T00:48:10;35.63;;;13.67;;
18316;SDS011;9284;52.298;21.164;2022-12-18T00:50:40;38.13;;;14.00;;
18316;SDS011;9284;52.298;21.164;2022-12-18T00:53:11;35.43;;;13.30;;
18316;SDS011;9284;52.298;21.164;2022-12-18T00:55:40;35.20;;;14.50;;
18316;SDS011;9284;52.298;21.164;2022-12-18T00:58:09;32.83;;;13.13;;
18316;SDS011;9284;52.298;21.164;2022-12-18T01:00:39;34.90;;;13.63;;
18316;SDS011;9284;52.298;21.164;2022-12-18T01:03:10;34.17;;;13.80;;
18316;SDS011;9284;52.298;21.164;2022-12-18T01:05:44;33.70;;;12.20;;
18316;SDS011;9284;52.298;21.164;2022-12-18T01:08:19;34.47;;;13.10;;
18316;SDS011;9284;52.298;21.164;2022-12-18T01:10:49;29.77;;;12.40;;
18316;SDS011;9284;52.298;21.164;2022-12-18T01:13:20;36.57;;;13.97;;
18316;SDS011;9284;52.298;21.164;2022-12-18T01:15:51;37.77;;;15.93;;
18316;SDS011;9284;52.298;21.164;2022-12-18T01:18:24;32.07;;;12.87;;
18316;SDS011;9284;52.298;21.164;2022-12-18T01:20:54;31.27;;;13.23;;
18316;SDS011;9284;52.298;21.164;2022-12-18T01:23:22;39.23;;;13.83;;
18316;SDS011;9284;52.298;21.164;2022-12-18T01:25:51;35.90;;;12.93;;
18316;SDS011;9284;52.298;21.164;2022-12-18T01:28:21;29.47;;;12.07;;
18316;SDS011;9284;52.298;21.164;2022-12-18T01:30:50;35.50;;;13.37;;
18316;SDS011;9284;52.298;21.164;2022-12-18T01:33:20;31.73;;;13.47;;
18316;SDS011;9284;52.298;21.164;2022-12-18T01:35:53;33.67;;;13.73;;
18316;SDS011;9284;52.298;21.164;2022-12-18T01:38:29;33.73;;;12.27;;
18316;SDS011;9284;52.298;21.164;2022-12-18T01:40:57;30.57;;;12.37;;
18316;SDS011;9284;52.298;21.164;2022-12-18T01:43:45;28.93;;;11.47;;
18316;SDS011;9284;52.298;21.164;2022-12-18T01:46:20;27.70;;;11.33;;
18316;SDS011;9284;52.298;21.164;2022-12-18T01:48:55;33.73;;;12.33;;
18316;SDS011;9284;52.298;21.164;2022-12-18T01:51:27;27.97;;;10.90;;
18316;SDS011;9284;52.298;21.164;2022-12-18T01:54:00;31.87;;;12.17;;
18316;SDS011;9284;52.298;21.164;2022-12-18T01:56:28;28.93;;;11.20;;
18316;SDS011;9284;52.298;21.164;2022-12-18T01:58:58;30.27;;;11.00;;
18316;SDS011;9284;52.298;21.164;2022-12-18T02:01:30;25.40;;;10.87;;
18316;SDS011;9284;52.298;21.164;2022-12-18T02:04:14;27.83;;;11.63;;
18316;SDS011;9284;52.298;21.164;2022-12-18T02:06:50;29.10;;;11.57;;
18316;SDS011;9284;52.298;21.164;2022-12-18T02:09:23;31.50;;;11.63;;
18316;SDS011;9284;52.298;21.164;2022-12-18T02:12:01;26.80;;;10.90;;
18316;SDS011;9284;52.298;21.164;2022-12-18T02:14:36;33.60;;;12.17;;
18316;SDS011;9284;52.298;21.164;2022-12-18T02:17:14;28.57;;;11.57;;
18316;SDS011;9284;52.298;21.164;2022-12-18T02:19:59;29.20;;;11.20;;
18316;SDS011;9284;52.298;21.164;2022-12-18T02:22:41;28.73;;;11.50;;
18316;SDS011;9284;52.298;21.164;2022-12-18T02:25:21;30.43;;;12.43;;
18316;SDS011;9284;52.298;21.164;2022-12-18T02:28:08;32.67;;;12.47;;
18316;SDS011;9284;52.298;21.164;2022-12-18T02:30:41;36.03;;;11.70;;
18316;SDS011;9284;52.298;21.164;2022-12-18T02:33:13;36.50;;;13.57;;
18316;SDS011;9284;52.298;21.164;2022-12-18T02:35:44;31.67;;;13.13;;
18316;SDS011;9284;52.298;21.164;2022-12-18T02:38:14;31.30;;;11.40;;
18316;SDS011;9284;52.298;21.164;2022-12-18T02:40:47;29.00;;;13.00;;
18316;SDS011;9284;52.298;21.164;2022-12-18T02:43:19;34.00;;;12.07;;
18316;SDS011;9284;52.298;21.164;2022-12-18T02:45:50;31.50;;;12.30;;
18316;SDS011;9284;52.298;21.164;2022-12-18T02:48:25;26.47;;;10.87;;
18316;SDS011;9284;52.298;21.164;2022-12-18T02:50:59;28.83;;;10.20;;
18316;SDS011;9284;52.298;21.164;2022-12-18T02:53:43;24.93;;;10.13;;
18316;SDS011;9284;52.298;21.164;2022-12-18T02:56:19;25.20;;;11.00;;
18316;SDS011;9284;52.298;21.164;2022-12-18T02:58:55;25.73;;;11.40;;
18316;SDS011;9284;52.298;21.164;2022-12-18T03:01:40;28.93;;;11.13;;
18316;SDS011;9284;52.298;21.164;2022-12-18T03:04:17;27.63;;;11.77;;
18316;SDS011;9284;52.298;21.164;2022-12-18T03:06:57;28.43;;;11.33;;
18316;SDS011;9284;52.298;21.164;2022-12-18T03:09:35;25.70;;;10.90;;
18316;SDS011;9284;52.298;21.164;2022-12-18T03:12:11;28.57;;;11.77;;
18316;SDS011;9284;52.298;21.164;2022-12-18T03:14:56;25.67;;;10.60;;
18316;SDS011;9284;52.298;21.164;2022-12-18T03:17:32;25.13;;;10.30;;
18316;SDS011;9284;52.298;21.164;2022-12-18T03:20:03;26.73;;;11.53;;
18316;SDS011;9284;52.298;21.164;2022-12-18T03:22:35;29.37;;;11.60;;
18316;SDS011;9284;52.298;21.164;2022-12-18T03:25:07;26.57;;;10.73;;
18316;SDS011;9284;52.298;21.164;2022-12-18T03:27:40;27.00;;;11.13;;
18316;SDS011;9284;52.298;21.164;2022-12-18T03:30:17;23.80;;;9.90;;
18316;SDS011;9284;52.298;21.164;2022-12-18T03:32:50;27.33;;;10.20;;
18316;SDS011;9284;52.298;21.164;2022-12-18T03:35:29;22.27;;;9.97;;
18316;SDS011;9284;52.298;21.164;2022-12-18T03:37:59;26.50;;;10.87;;
18316;SDS011;9284;52.298;21.164;2022-12-18T03:40:29;19.10;;;9.87;;
18316;SDS011;9284;52.298;21.164;2022-12-18T03:43:05;22.93;;;10.23;;
18316;SDS011;9284;52.298;21.164;2022-12-18T03:45:41;25.43;;;10.93;;
18316;SDS011;9284;52.298;21.164;2022-12-18T03:48:18;21.47;;;10.60;;
18316;SDS011;9284;52.298;21.164;2022-12-18T03:50:56;22.63;;;9.77;;
18316;SDS011;9284;52.298;21.164;2022-12-18T03:53:31;23.47;;;9.67;;
18316;SDS011;9284;52.298;21.164;2022-12-18T03:56:06;26.30;;;10.00;;
18316;SDS011;9284;52.298;21.164;2022-12-18T03:58:39;23.53;;;10.37;;
18316;SDS011;9284;52.298;21.164;2022-12-18T04:01:20;27.40;;;10.47;;
18316;SDS011;9284;52.298;21.164;2022-12-18T04:03:56;28.20;;;10.00;;
18316;SDS011;9284;52.298;21.164;2022-12-18T04:06:29;24.47;;;9.70;;
18316;SDS011;9284;52.298;21.164;2022-12-18T04:08:58;24.57;;;10.90;;
18316;SDS011;9284;52.298;21.164;2022-12-18T04:11:31;25.07;;;9.97;;
18316;SDS011;9284;52.298;21.164;2022-12-18T04:14:02;28.57;;;10.77;;
18316;SDS011;9284;52.298;21.164;2022-12-18T04:16:35;26.23;;;10.83;;
18316;SDS011;9284;52.298;21.164;2022-12-18T04:19:07;29.00;;;11.03;;
18316;SDS011;9284;52.298;21.164;2022-12-18T04:21:39;24.70;;;10.00;;
18316;SDS011;9284;52.298;21.164;2022-12-18T04:24:14;22.23;;;9.87;;
18316;SDS011;9284;52.298;21.164;2022-12-18T04:27:02;23.47;;;10.60;;
18316;SDS011;9284;52.298;21.164;2022-12-18T04:29:42;24.10;;;10.00;;
18316;SDS011;9284;52.298;21.164;2022-12-18T04:32:12;26.20;;;10.10;;
18316;SDS011;9284;52.298;21.164;2022-12-18T04:34:43;26.30;;;9.90;;
18316;SDS011;9284;52.298;21.164;2022-12-18T04:37:12;25.97;;;10.30;;
18316;SDS011;9284;52.298;21.164;2022-12-18T04:39:42;24.23;;;10.57;;
18316;SDS011;9284;52.298;21.164;2022-12-18T04:42:19;21.30;;;9.13;;
18316;SDS011;9284;52.298;21.164;2022-12-18T04:44:48;23.80;;;9.93;;
18316;SDS011;9284;52.298;21.164;2022-12-18T04:47:21;26.17;;;10.60;;
18316;SDS011;9284;52.298;21.164;2022-12-18T04:49:49;24.13;;;10.90;;
18316;SDS011;9284;52.298;21.164;2022-12-18T04:52:17;22.90;;;10.30;;
18316;SDS011;9284;52.298;21.164;2022-12-18T04:54:46;20.67;;;9.10;;
18316;SDS011;9284;52.298;21.164;2022-12-18T04:57:19;24.50;;;10.07;;
18316;SDS011;9284;52.298;21.164;2022-12-18T04:59:49;23.97;;;9.30;;
18316;SDS011;9284;52.298;21.164;2022-12-18T05:02:21;28.17;;;10.77;;
18316;SDS011;9284;52.298;21.164;2022-12-18T05:04:53;24.87;;;10.10;;
18316;SDS011;9284;52.298;21.164;2022-12-18T05:07:21;20.90;;;8.87;;
18316;SDS011;9284;52.298;21.164;2022-12-18T05:09:53;23.70;;;10.60;;
18316;SDS011;9284;52.298;21.164;2022-12-18T05:12:21;23.57;;;9.43;;
18316;SDS011;9284;52.298;21.164;2022-12-18T05:14:51;22.07;;;9.60;;
18316;SDS011;9284;52.298;21.164;2022-12-18T05:17:23;20.67;;;9.73;;
18316;SDS011;9284;52.298;21.164;2022-12-18T05:19:51;23.90;;;10.37;;
18316;SDS011;9284;52.298;21.164;2022-12-18T05:22:20;25.37;;;10.60;;
18316;SDS011;9284;52.298;21.164;2022-12-18T05:24:50;22.87;;;10.33;;
18316;SDS011;9284;52.298;21.164;2022-12-18T05:27:19;28.10;;;11.27;;
18316;SDS011;9284;52.298;21.164;2022-12-18T05:29:48;25.47;;;11.07;;
18316;SDS011;9284;52.298;21.164;2022-12-18T05:32:16;25.67;;;10.70;;
18316;SDS011;9284;52.298;21.164;2022-12-18T05:34:47;24.00;;;10.07;;
18316;SDS011;9284;52.298;21.164;2022-12-18T05:37:16;24.87;;;11.20;;
18316;SDS011;9284;52.298;21.164;2022-12-18T05:39:44;22.77;;;9.67;;
18316;SDS011;9284;52.298;21.164;2022-12-18T05:42:14;26.77;;;9.87;;
18316;SDS011;9284;52.298;21.164;2022-12-18T05:44:43;22.37;;;9.93;;
18316;SDS011;9284;52.298;21.164;2022-12-18T05:47:15;26.67;;;9.60;;
18316;SDS011;9284;52.298;21.164;2022-12-18T05:49:43;22.27;;;8.53;;
18316;SDS011;9284;52.298;21.164;2022-12-18T05:52:15;24.33;;;10.00;;
18316;SDS011;9284;52.298;21.164;2022-12-18T05:54:46;18.70;;;8.30;;
18316;SDS011;9284;52.298;21.164;2022-12-18T05:57:14;21.53;;;7.73;;
18316;SDS011;9284;52.298;21.164;2022-12-18T05:59:45;23.20;;;8.27;;
18316;SDS011;9284;52.298;21.164;2022-12-18T06:02:16;20.50;;;8.63;;
18316;SDS011;9284;52.298;21.164;2022-12-18T06:04:45;26.00;;;9.77;;
18316;SDS011;9284;52.298;21.164;2022-12-18T06:07:17;22.20;;;9.67;;
18316;SDS011;9284;52.298;21.164;2022-12-18T06:09:46;19.90;;;8.73;;
18316;SDS011;9284;52.298;21.164;2022-12-18T06:12:18;19.23;;;9.43;;
18316;SDS011;9284;52.298;21.164;2022-12-18T06:14:46;26.83;;;9.53;;
18316;SDS011;9284;52.298;21.164;2022-12-18T06:17:14;22.50;;;9.13;;
18316;SDS011;9284;52.298;21.164;2022-12-18T06:19:43;29.53;;;10.17;;
18316;SDS011;9284;52.298;21.164;2022-12-18T06:22:19;26.67;;;10.07;;
18316;SDS011;9284;52.298;21.164;2022-12-18T06:24:47;25.53;;;10.33;;
18316;SDS011;9284;52.298;21.164;2022-12-18T06:27:16;27.30;;;10.17;;
18316;SDS011;9284;52.298;21.164;2022-12-18T06:29:54;29.77;;;11.53;;
18316;SDS011;9284;52.298;21.164;2022-12-18T06:32:23;30.07;;;11.97;;
18316;SDS011;9284;52.298;21.164;2022-12-18T06:34:53;32.40;;;10.73;;
18316;SDS011;9284;52.298;21.164;2022-12-18T06:37:25;28.80;;;11.03;;
18316;SDS011;9284;52.298;21.164;2022-12-18T06:39:56;25.67;;;9.63;;
18316;SDS011;9284;52.298;21.164;2022-12-18T06:42:30;23.37;;;9.87;;
18316;SDS011;9284;52.298;21.164;2022-12-18T06:45:00;27.37;;;9.00;;
18316;SDS011;9284;52.298;21.164;2022-12-18T06:47:31;21.70;;;9.47;;
18316;SDS011;9284;52.298;21.164;2022-12-18T06:49:59;23.53;;;9.77;;
18316;SDS011;9284;52.298;21.164;2022-12-18T06:52:31;28.47;;;10.73;;
18316;SDS011;9284;52.298;21.164;2022-12-18T06:55:01;29.23;;;11.13;;
18316;SDS011;9284;52.298;21.164;2022-12-18T06:57:32;30.33;;;11.63;;
18316;SDS011;9284;52.298;21.164;2022-12-18T07:00:08;26.07;;;10.57;;
18316;SDS011;9284;52.298;21.164;2022-12-18T07:02:38;26.27;;;9.80;;
18316;SDS011;9284;52.298;21.164;2022-12-18T07:05:07;25.03;;;9.20;;
18316;SDS011;9284;52.298;21.164;2022-12-18T07:07:38;27.33;;;9.87;;
18316;SDS011;9284;52.298;21.164;2022-12-18T07:10:13;25.67;;;10.40;;
18316;SDS011;9284;52.298;21.164;2022-12-18T07:12:43;28.93;;;10.50;;
18316;SDS011;9284;52.298;21.164;2022-12-18T07:15:13;23.60;;;9.93;;
18316;SDS011;9284;52.298;21.164;2022-12-18T07:17:50;23.90;;;10.93;;
18316;SDS011;9284;52.298;21.164;2022-12-18T07:20:21;25.30;;;11.10;;
18316;SDS011;9284;52.298;21.164;2022-12-18T07:22:51;27.93;;;11.40;;
18316;SDS011;9284;52.298;21.164;2022-12-18T07:25:21;39.17;;;14.77;;
18316;SDS011;9284;52.298;21.164;2022-12-18T07:27:52;30.53;;;12.03;;
18316;SDS011;9284;52.298;21.164;2022-12-18T07:30:28;33.93;;;12.83;;
18316;SDS011;9284;52.298;21.164;2022-12-18T07:32:57;30.13;;;11.43;;
18316;SDS011;9284;52.298;21.164;2022-12-18T07:35:32;31.33;;;11.60;;
18316;SDS011;9284;52.298;21.164;2022-12-18T07:38:03;34.23;;;11.13;;
18316;SDS011;9284;52.298;21.164;2022-12-18T07:40:32;30.57;;;11.73;;
18316;SDS011;9284;52.298;21.164;2022-12-18T07:43:00;32.90;;;12.77;;
18316;SDS011;9284;52.298;21.164;2022-12-18T07:45:30;38.23;;;13.37;;
18316;SDS011;9284;52.298;21.164;2022-12-18T07:48:04;34.47;;;13.17;;
18316;SDS011;9284;52.298;21.164;2022-12-18T07:50:37;36.27;;;12.83;;
18316;SDS011;9284;52.298;21.164;2022-12-18T07:53:11;30.63;;;12.27;;
18316;SDS011;9284;52.298;21.164;2022-12-18T07:55:41;30.97;;;12.20;;
18316;SDS011;9284;52.298;21.164;2022-12-18T07:58:32;36.33;;;12.53;;
18316;SDS011;9284;52.298;21.164;2022-12-18T08:01:10;37.90;;;14.13;;
18316;SDS011;9284;52.298;21.164;2022-12-18T08:03:40;28.93;;;12.43;;
18316;SDS011;9284;52.298;21.164;2022-12-18T08:06:10;39.10;;;14.83;;
18316;SDS011;9284;52.298;21.164;2022-12-18T08:08:43;45.07;;;15.67;;
18316;SDS011;9284;52.298;21.164;2022-12-18T08:11:13;43.90;;;16.00;;
18316;SDS011;9284;52.298;21.164;2022-12-18T08:13:45;42.67;;;14.47;;
18316;SDS011;9284;52.298;21.164;2022-12-18T08:16:16;42.63;;;15.53;;
18316;SDS011;9284;52.298;21.164;2022-12-18T08:18:53;36.17;;;14.53;;
18316;SDS011;9284;52.298;21.164;2022-12-18T08:21:24;36.90;;;14.70;;
18316;SDS011;9284;52.298;21.164;2022-12-18T08:24:00;43.90;;;15.33;;
18316;SDS011;9284;52.298;21.164;2022-12-18T08:26:31;38.13;;;14.00;;
18316;SDS011;9284;52.298;21.164;2022-12-18T08:28:59;37.67;;;14.40;;
18316;SDS011;9284;52.298;21.164;2022-12-18T08:31:30;43.07;;;15.43;;
18316;SDS011;9284;52.298;21.164;2022-12-18T08:33:59;44.83;;;15.17;;
18316;SDS011;9284;52.298;21.164;2022-12-18T08:36:27;47.57;;;16.00;;
18316;SDS011;9284;52.298;21.164;2022-12-18T08:38:56;46.70;;;15.97;;
18316;SDS011;9284;52.298;21.164;2022-12-18T08:41:27;48.33;;;16.47;;
18316;SDS011;9284;52.298;21.164;2022-12-18T08:44:00;56.10;;;17.37;;
18316;SDS011;9284;52.298;21.164;2022-12-18T08:46:45;58.73;;;17.70;;
18316;SDS011;9284;52.298;21.164;2022-12-18T08:49:14;51.00;;;17.87;;
18316;SDS011;9284;52.298;21.164;2022-12-18T08:51:42;52.30;;;17.53;;
18316;SDS011;9284;52.298;21.164;2022-12-18T08:54:11;62.80;;;19.10;;
18316;SDS011;9284;52.298;21.164;2022-12-18T08:56:44;59.80;;;21.03;;
18316;SDS011;9284;52.298;21.164;2022-12-18T08:59:12;53.23;;;19.23;;
18316;SDS011;9284;52.298;21.164;2022-12-18T09:01:45;66.53;;;20.20;;
18316;SDS011;9284;52.298;21.164;2022-12-18T09:04:15;70.33;;;22.47;;
18316;SDS011;9284;52.298;21.164;2022-12-18T09:06:43;65.10;;;21.23;;
18316;SDS011;9284;52.298;21.164;2022-12-18T09:09:11;61.33;;;20.37;;
18316;SDS011;9284;52.298;21.164;2022-12-18T09:11:40;61.40;;;21.80;;
18316;SDS011;9284;52.298;21.164;2022-12-18T09:14:10;58.80;;;18.77;;
18316;SDS011;9284;52.298;21.164;2022-12-18T09:16:38;68.23;;;19.27;;
18316;SDS011;9284;52.298;21.164;2022-12-18T09:19:11;60.80;;;18.27;;
18316;SDS011;9284;52.298;21.164;2022-12-18T09:21:44;58.17;;;19.03;;
18316;SDS011;9284;52.298;21.164;2022-12-18T09:24:14;55.00;;;18.80;;
18316;SDS011;9284;52.298;21.164;2022-12-18T09:26:44;53.93;;;18.60;;
18316;SDS011;9284;52.298;21.164;2022-12-18T09:29:14;70.67;;;22.17;;
18316;SDS011;9284;52.298;21.164;2022-12-18T09:31:44;67.17;;;21.93;;
18316;SDS011;9284;52.298;21.164;2022-12-18T09:34:13;60.30;;;21.83;;
18316;SDS011;9284;52.298;21.164;2022-12-18T09:36:42;67.17;;;22.17;;
18316;SDS011;9284;52.298;21.164;2022-12-18T09:39:10;64.60;;;22.77;;
18316;SDS011;9284;52.298;21.164;2022-12-18T09:41:45;68.37;;;22.90;;
18316;SDS011;9284;52.298;21.164;2022-12-18T09:44:20;56.40;;;19.70;;
18316;SDS011;9284;52.298;21.164;2022-12-18T09:46:53;55.73;;;19.50;;
18316;SDS011;9284;52.298;21.164;2022-12-18T09:49:30;60.70;;;21.17;;
18316;SDS011;9284;52.298;21.164;2022-12-18T09:52:05;68.53;;;24.07;;
18316;SDS011;9284;52.298;21.164;2022-12-18T09:54:40;73.37;;;23.10;;
18316;SDS011;9284;52.298;21.164;2022-12-18T09:57:11;63.87;;;21.03;;
18316;SDS011;9284;52.298;21.164;2022-12-18T09:59:43;63.23;;;20.87;;
18316;SDS011;9284;52.298;21.164;2022-12-18T10:02:17;62.90;;;20.77;;
18316;SDS011;9284;52.298;21.164;2022-12-18T10:04:55;58.60;;;19.77;;
18316;SDS011;9284;52.298;21.164;2022-12-18T10:07:33;59.07;;;21.43;;
18316;SDS011;9284;52.298;21.164;2022-12-18T10:10:15;54.97;;;20.03;;
18316;SDS011;9284;52.298;21.164;2022-12-18T10:12:55;58.10;;;18.03;;
18316;SDS011;9284;52.298;21.164;2022-12-18T10:15:33;62.53;;;19.70;;
18316;SDS011;9284;52.298;21.164;2022-12-18T10:18:13;55.63;;;19.70;;
18316;SDS011;9284;52.298;21.164;2022-12-18T10:20:49;58.43;;;19.37;;
18316;SDS011;9284;52.298;21.164;2022-12-18T10:23:21;71.23;;;22.87;;
18316;SDS011;9284;52.298;21.164;2022-12-18T10:25:57;63.60;;;20.23;;
18316;SDS011;9284;52.298;21.164;2022-12-18T10:28:30;53.57;;;18.83;;
18316;SDS011;9284;52.298;21.164;2022-12-18T10:31:01;55.80;;;21.43;;
18316;SDS011;9284;52.298;21.164;2022-12-18T10:33:32;54.67;;;19.87;;
18316;SDS011;9284;52.298;21.164;2022-12-18T10:36:01;55.23;;;19.80;;
18316;SDS011;9284;52.298;21.164;2022-12-18T10:38:30;57.07;;;20.47;;
18316;SDS011;9284;52.298;21.164;2022-12-18T10:41:00;49.07;;;19.43;;
18316;SDS011;9284;52.298;21.164;2022-12-18T10:43:30;53.10;;;20.03;;
18316;SDS011;9284;52.298;21.164;2022-12-18T10:46:00;57.00;;;18.70;;
18316;SDS011;9284;52.298;21.164;2022-12-18T10:48:33;58.23;;;19.03;;
18316;SDS011;9284;52.298;21.164;2022-12-18T10:51:04;44.77;;;17.27;;
18316;SDS011;9284;52.298;21.164;2022-12-18T10:53:39;56.20;;;18.80;;
18316;SDS011;9284;52.298;21.164;2022-12-18T10:56:09;47.93;;;17.53;;
18316;SDS011;9284;52.298;21.164;2022-12-18T10:58:38;52.03;;;19.20;;
18316;SDS011;9284;52.298;21.164;2022-12-18T11:01:10;54.23;;;19.67;;
18316;SDS011;9284;52.298;21.164;2022-12-18T11:03:40;54.57;;;18.60;;
18316;SDS011;9284;52.298;21.164;2022-12-18T11:06:10;53.70;;;19.50;;
18316;SDS011;9284;52.298;21.164;2022-12-18T11:08:40;53.97;;;20.10;;
18316;SDS011;9284;52.298;21.164;2022-12-18T11:11:19;54.30;;;21.53;;
18316;SDS011;9284;52.298;21.164;2022-12-18T11:13:51;60.70;;;20.57;;
18316;SDS011;9284;52.298;21.164;2022-12-18T11:16:30;50.03;;;18.50;;
18316;SDS011;9284;52.298;21.164;2022-12-18T11:21:59;61.67;;;19.27;;
18316;SDS011;9284;52.298;21.164;2022-12-18T11:24:30;55.10;;;20.00;;
18316;SDS011;9284;52.298;21.164;2022-12-18T11:27:00;51.40;;;18.27;;
18316;SDS011;9284;52.298;21.164;2022-12-18T11:29:34;52.63;;;18.37;;
18316;SDS011;9284;52.298;21.164;2022-12-18T11:32:24;55.23;;;19.07;;
18316;SDS011;9284;52.298;21.164;2022-12-18T11:35:03;52.50;;;18.87;;
18316;SDS011;9284;52.298;21.164;2022-12-18T11:37:41;49.87;;;18.40;;
18316;SDS011;9284;52.298;21.164;2022-12-18T11:40:14;48.83;;;18.67;;
18316;SDS011;9284;52.298;21.164;2022-12-18T11:42:48;55.70;;;18.70;;
18316;SDS011;9284;52.298;21.164;2022-12-18T11:45:28;44.83;;;18.33;;
18316;SDS011;9284;52.298;21.164;2022-12-18T11:48:00;47.70;;;19.30;;
18316;SDS011;9284;52.298;21.164;2022-12-18T11:50:33;51.93;;;19.03;;
18316;SDS011;9284;52.298;21.164;2022-12-18T11:53:11;45.40;;;18.83;;
18316;SDS011;9284;52.298;21.164;2022-12-18T11:55:41;46.23;;;17.63;;
18316;SDS011;9284;52.298;21.164;2022-12-18T11:58:18;45.20;;;17.50;;
18316;SDS011;9284;52.298;21.164;2022-12-18T12:01:00;45.57;;;17.67;;
18316;SDS011;9284;52.298;21.164;2022-12-18T12:03:47;48.27;;;18.97;;
18316;SDS011;9284;52.298;21.164;2022-12-18T12:06:36;48.57;;;18.53;;
18316;SDS011;9284;52.298;21.164;2022-12-18T12:09:12;45.73;;;19.80;;
18316;SDS011;9284;52.298;21.164;2022-12-18T12:11:50;45.73;;;18.60;;
18316;SDS011;9284;52.298;21.164;2022-12-18T12:14:29;39.87;;;16.83;;
18316;SDS011;9284;52.298;21.164;2022-12-18T12:17:08;46.80;;;18.60;;
18316;SDS011;9284;52.298;21.164;2022-12-18T12:19:48;49.63;;;20.03;;
18316;SDS011;9284;52.298;21.164;2022-12-18T12:22:23;50.17;;;19.80;;
18316;SDS011;9284;52.298;21.164;2022-12-18T12:25:04;49.43;;;20.27;;
18316;SDS011;9284;52.298;21.164;2022-12-18T12:27:45;51.43;;;20.73;;
18316;SDS011;9284;52.298;21.164;2022-12-18T12:30:21;58.93;;;21.30;;
18316;SDS011;9284;52.298;21.164;2022-12-18T12:33:07;60.53;;;22.97;;
18316;SDS011;9284;52.298;21.164;2022-12-18T12:35:49;50.93;;;19.60;;
18316;SDS011;9284;52.298;21.164;2022-12-18T12:38:26;56.90;;;20.30;;
18316;SDS011;9284;52.298;21.164;2022-12-18T12:40:58;52.97;;;18.77;;
18316;SDS011;9284;52.298;21.164;2022-12-18T12:43:33;46.17;;;19.50;;
18316;SDS011;9284;52.298;21.164;2022-12-18T12:46:15;56.60;;;19.10;;
18316;SDS011;9284;52.298;21.164;2022-12-18T12:48:47;54.83;;;18.10;;
18316;SDS011;9284;52.298;21.164;2022-12-18T12:51:21;51.90;;;19.47;;
18316;SDS011;9284;52.298;21.164;2022-12-18T12:53:51;58.73;;;20.83;;
18316;SDS011;9284;52.298;21.164;2022-12-18T12:56:22;54.73;;;20.13;;
18316;SDS011;9284;52.298;21.164;2022-12-18T12:58:57;55.60;;;19.70;;
18316;SDS011;9284;52.298;21.164;2022-12-18T13:01:33;57.23;;;19.70;;
18316;SDS011;9284;52.298;21.164;2022-12-18T13:04:12;58.73;;;20.03;;
18316;SDS011;9284;52.298;21.164;2022-12-18T13:06:53;53.53;;;21.20;;
18316;SDS011;9284;52.298;21.164;2022-12-18T13:09:29;55.47;;;20.30;;
18316;SDS011;9284;52.298;21.164;2022-12-18T13:12:02;55.73;;;20.90;;
18316;SDS011;9284;52.298;21.164;2022-12-18T13:14:45;64.03;;;21.27;;
18316;SDS011;9284;52.298;21.164;2022-12-18T13:20:09;61.60;;;22.40;;
18316;SDS011;9284;52.298;21.164;2022-12-18T13:22:44;54.77;;;20.93;;
18316;SDS011;9284;52.298;21.164;2022-12-18T13:25:31;61.03;;;21.60;;
18316;SDS011;9284;52.298;21.164;2022-12-18T13:28:06;67.87;;;22.90;;
18316;SDS011;9284;52.298;21.164;2022-12-18T13:30:44;61.00;;;21.33;;
18316;SDS011;9284;52.298;21.164;2022-12-18T13:36:35;60.30;;;22.07;;
18316;SDS011;9284;52.298;21.164;2022-12-18T13:48:28;68.50;;;22.30;;
18316;SDS011;9284;52.298;21.164;2022-12-18T13:50:59;67.00;;;24.37;;
18316;SDS011;9284;52.298;21.164;2022-12-18T13:53:33;71.40;;;24.77;;
18316;SDS011;9284;52.298;21.164;2022-12-18T13:56:08;71.43;;;24.63;;
18316;SDS011;9284;52.298;21.164;2022-12-18T13:58:36;56.50;;;22.43;;
18316;SDS011;9284;52.298;21.164;2022-12-18T14:01:10;66.27;;;23.33;;
18316;SDS011;9284;52.298;21.164;2022-12-18T14:03:49;64.77;;;22.07;;
18316;SDS011;9284;52.298;21.164;2022-12-18T14:06:18;60.20;;;22.70;;
18316;SDS011;9284;52.298;21.164;2022-12-18T14:08:53;62.67;;;22.23;;
18316;SDS011;9284;52.298;21.164;2022-12-18T14:11:24;79.00;;;25.53;;
18316;SDS011;9284;52.298;21.164;2022-12-18T14:13:54;71.87;;;25.73;;
18316;SDS011;9284;52.298;21.164;2022-12-18T14:16:24;75.57;;;25.40;;
18316;SDS011;9284;52.298;21.164;2022-12-18T14:18:54;78.00;;;26.67;;
18316;SDS011;9284;52.298;21.164;2022-12-18T14:21:44;67.07;;;23.93;;
18316;SDS011;9284;52.298;21.164;2022-12-18T14:24:19;69.60;;;24.10;;
18316;SDS011;9284;52.298;21.164;2022-12-18T14:26:52;66.20;;;22.73;;
18316;SDS011;9284;52.298;21.164;2022-12-18T14:29:22;69.43;;;23.97;;
18316;SDS011;9284;52.298;21.164;2022-12-18T14:32:09;68.37;;;24.37;;
18316;SDS011;9284;52.298;21.164;2022-12-18T14:34:44;68.10;;;22.93;;
18316;SDS011;9284;52.298;21.164;2022-12-18T14:37:14;72.37;;;25.73;;
18316;SDS011;9284;52.298;21.164;2022-12-18T14:39:54;74.50;;;25.00;;
18316;SDS011;9284;52.298;21.164;2022-12-18T14:42:26;64.47;;;23.23;;
18316;SDS011;9284;52.298;21.164;2022-12-18T14:48:14;66.30;;;22.13;;
18316;SDS011;9284;52.298;21.164;2022-12-18T14:50:59;70.57;;;23.33;;
18316;SDS011;9284;52.298;21.164;2022-12-18T14:53:33;67.73;;;24.03;;
18316;SDS011;9284;52.298;21.164;2022-12-18T14:56:12;70.57;;;24.77;;
18316;SDS011;9284;52.298;21.164;2022-12-18T14:58:46;63.33;;;24.00;;
18316;SDS011;9284;52.298;21.164;2022-12-18T15:01:21;70.10;;;24.17;;
18316;SDS011;9284;52.298;21.164;2022-12-18T15:03:54;64.43;;;24.00;;
18316;SDS011;9284;52.298;21.164;2022-12-18T15:06:25;77.53;;;24.27;;
18316;SDS011;9284;52.298;21.164;2022-12-18T15:08:58;77.13;;;27.00;;
18316;SDS011;9284;52.298;21.164;2022-12-18T15:11:30;76.67;;;26.97;;
18316;SDS011;9284;52.298;21.164;2022-12-18T15:16:52;73.27;;;27.13;;
18316;SDS011;9284;52.298;21.164;2022-12-18T15:19:22;77.77;;;28.20;;
18316;SDS011;9284;52.298;21.164;2022-12-18T15:21:59;75.97;;;26.33;;